sensor_id;sensor_type;location;lat;lon;timestamp;P1;durP1;ratioP1;P2;durP2;ratioP2
2992;SDS011;1506;48.932;9.478;2023-04-07T00:00:38;7.03;;;6.63;;
2992;SDS011;1506;48.932;9.478;2023-04-07T00:03:06;10.63;;;7.80;;
2992;SDS011;1506;48.932;9.478;2023-04-07T00:05:34;10.77;;;6.90;;
2992;SDS011;1506;48.932;9.478;2023-04-07T00:08:01;9.73;;;8.20;;
2992;SDS011;1506;48.932;9.478;2023-04-07T00:10:28;12.80;;;7.80;;
2992;SDS011;1506;48.932;9.478;2023-04-07T00:12:55;11.53;;;8.70;;
2992;SDS011;1506;48.932;9.478;2023-04-07T00:15:22;13.10;;;9.07;;
2992;SDS011;1506;48.932;9.478;2023-04-07T00:17:49;10.00;;;8.67;;
2992;SDS011;1506;48.932;9.478;2023-04-07T00:20:16;14.40;;;8.10;;
2992;SDS011;1506;48.932;9.478;2023-04-07T00:22:43;13.30;;;8.93;;
2992;SDS011;1506;48.932;9.478;2023-04-07T00:25:10;10.00;;;8.70;;
2992;SDS011;1506;48.932;9.478;2023-04-07T00:27:37;11.13;;;8.33;;
2992;SDS011;1506;48.932;9.478;2023-04-07T00:30:05;9.33;;;8.33;;
2992;SDS011;1506;48.932;9.478;2023-04-07T00:32:32;11.93;;;8.47;;
2992;SDS011;1506;48.932;9.478;2023-04-07T00:35:01;12.07;;;7.63;;
2992;SDS011;1506;48.932;9.478;2023-04-07T00:37:28;11.50;;;7.97;;
2992;SDS011;1506;48.932;9.478;2023-04-07T00:39:55;13.03;;;8.40;;
2992;SDS011;1506;48.932;9.478;2023-04-07T00:42:24;18.10;;;9.27;;
2992;SDS011;1506;48.932;9.478;2023-04-07T00:44:51;13.50;;;9.00;;
2992;SDS011;1506;48.932;9.478;2023-04-07T00:47:19;10.70;;;8.37;;
2992;SDS011;1506;48.932;9.478;2023-04-07T00:49:46;9.23;;;7.80;;
2992;SDS011;1506;48.932;9.478;2023-04-07T00:52:13;10.20;;;9.00;;
2992;SDS011;1506;48.932;9.478;2023-04-07T00:54:41;10.93;;;9.30;;
2992;SDS011;1506;48.932;9.478;2023-04-07T00:57:11;7.07;;;6.30;;
2992;SDS011;1506;48.932;9.478;2023-04-07T00:59:38;13.33;;;9.00;;
2992;SDS011;1506;48.932;9.478;2023-04-07T01:02:15;10.87;;;8.43;;
2992;SDS011;1506;48.932;9.478;2023-04-07T01:08:20;7.73;;;6.70;;
2992;SDS011;1506;48.932;9.478;2023-04-07T01:11:07;12.93;;;7.90;;
2992;SDS011;1506;48.932;9.478;2023-04-07T01:13:50;10.10;;;7.77;;
2992;SDS011;1506;48.932;9.478;2023-04-07T01:16:45;8.20;;;7.10;;
2992;SDS011;1506;48.932;9.478;2023-04-07T01:19:27;6.73;;;6.30;;
2992;SDS011;1506;48.932;9.478;2023-04-07T01:22:15;9.53;;;6.93;;
2992;SDS011;1506;48.932;9.478;2023-04-07T01:31:05;6.90;;;6.40;;
2992;SDS011;1506;48.932;9.478;2023-04-07T01:33:36;8.53;;;7.77;;
2992;SDS011;1506;48.932;9.478;2023-04-07T01:36:05;7.83;;;6.80;;
2992;SDS011;1506;48.932;9.478;2023-04-07T01:38:34;8.03;;;7.30;;
2992;SDS011;1506;48.932;9.478;2023-04-07T01:41:03;7.20;;;6.60;;
2992;SDS011;1506;48.932;9.478;2023-04-07T01:43:31;9.40;;;6.93;;
2992;SDS011;1506;48.932;9.478;2023-04-07T01:45:58;9.60;;;7.90;;
2992;SDS011;1506;48.932;9.478;2023-04-07T01:48:26;10.43;;;7.20;;
2992;SDS011;1506;48.932;9.478;2023-04-07T01:50:54;10.07;;;6.97;;
2992;SDS011;1506;48.932;9.478;2023-04-07T01:53:23;7.93;;;6.90;;
2992;SDS011;1506;48.932;9.478;2023-04-07T01:55:51;8.73;;;6.97;;
2992;SDS011;1506;48.932;9.478;2023-04-07T01:58:20;7.97;;;5.70;;
2992;SDS011;1506;48.932;9.478;2023-04-07T02:00:47;14.13;;;7.40;;
2992;SDS011;1506;48.932;9.478;2023-04-07T02:03:20;6.47;;;5.77;;
2992;SDS011;1506;48.932;9.478;2023-04-07T02:06:03;10.63;;;6.77;;
2992;SDS011;1506;48.932;9.478;2023-04-07T02:08:34;12.10;;;6.73;;
2992;SDS011;1506;48.932;9.478;2023-04-07T02:11:04;13.20;;;7.53;;
2992;SDS011;1506;48.932;9.478;2023-04-07T02:13:34;7.40;;;6.83;;
2992;SDS011;1506;48.932;9.478;2023-04-07T02:16:03;10.20;;;7.20;;
2992;SDS011;1506;48.932;9.478;2023-04-07T02:18:32;11.27;;;7.60;;
2992;SDS011;1506;48.932;9.478;2023-04-07T02:20:59;8.20;;;7.30;;
2992;SDS011;1506;48.932;9.478;2023-04-07T02:23:29;8.93;;;7.90;;
2992;SDS011;1506;48.932;9.478;2023-04-07T02:25:56;12.53;;;7.10;;
2992;SDS011;1506;48.932;9.478;2023-04-07T02:28:23;11.30;;;7.10;;
2992;SDS011;1506;48.932;9.478;2023-04-07T02:30:50;11.80;;;7.87;;
2992;SDS011;1506;48.932;9.478;2023-04-07T02:33:17;10.70;;;7.60;;
2992;SDS011;1506;48.932;9.478;2023-04-07T02:35:44;7.27;;;6.57;;
2992;SDS011;1506;48.932;9.478;2023-04-07T02:38:11;10.00;;;7.37;;
2992;SDS011;1506;48.932;9.478;2023-04-07T02:40:38;10.67;;;8.33;;
2992;SDS011;1506;48.932;9.478;2023-04-07T02:43:05;9.07;;;8.00;;
2992;SDS011;1506;48.932;9.478;2023-04-07T02:45:32;11.30;;;8.60;;
2992;SDS011;1506;48.932;9.478;2023-04-07T02:47:59;14.63;;;8.93;;
2992;SDS011;1506;48.932;9.478;2023-04-07T02:50:27;14.00;;;9.80;;
2992;SDS011;1506;48.932;9.478;2023-04-07T02:52:54;9.27;;;7.67;;
2992;SDS011;1506;48.932;9.478;2023-04-07T02:55:22;10.37;;;8.00;;
2992;SDS011;1506;48.932;9.478;2023-04-07T02:57:49;16.17;;;6.67;;
2992;SDS011;1506;48.932;9.478;2023-04-07T03:00:29;10.20;;;8.20;;
2992;SDS011;1506;48.932;9.478;2023-04-07T03:03:05;10.63;;;9.53;;
2992;SDS011;1506;48.932;9.478;2023-04-07T03:05:36;18.00;;;8.47;;
2992;SDS011;1506;48.932;9.478;2023-04-07T03:08:04;11.07;;;8.03;;
2992;SDS011;1506;48.932;9.478;2023-04-07T03:10:31;12.03;;;7.10;;
2992;SDS011;1506;48.932;9.478;2023-04-07T03:12:58;8.50;;;6.93;;
2992;SDS011;1506;48.932;9.478;2023-04-07T03:15:25;11.00;;;7.27;;
2992;SDS011;1506;48.932;9.478;2023-04-07T03:17:53;13.40;;;8.50;;
2992;SDS011;1506;48.932;9.478;2023-04-07T03:20:21;13.37;;;7.83;;
2992;SDS011;1506;48.932;9.478;2023-04-07T03:22:48;13.70;;;8.93;;
2992;SDS011;1506;48.932;9.478;2023-04-07T03:25:20;11.37;;;9.00;;
2992;SDS011;1506;48.932;9.478;2023-04-07T03:27:49;10.50;;;7.27;;
2992;SDS011;1506;48.932;9.478;2023-04-07T03:30:17;18.97;;;10.90;;
2992;SDS011;1506;48.932;9.478;2023-04-07T03:32:45;14.17;;;8.67;;
2992;SDS011;1506;48.932;9.478;2023-04-07T03:35:12;8.97;;;7.27;;
2992;SDS011;1506;48.932;9.478;2023-04-07T03:37:39;17.90;;;8.53;;
2992;SDS011;1506;48.932;9.478;2023-04-07T03:40:11;12.67;;;8.57;;
2992;SDS011;1506;48.932;9.478;2023-04-07T03:42:39;11.87;;;9.13;;
2992;SDS011;1506;48.932;9.478;2023-04-07T03:45:07;19.87;;;9.57;;
2992;SDS011;1506;48.932;9.478;2023-04-07T03:47:39;16.33;;;9.53;;
2992;SDS011;1506;48.932;9.478;2023-04-07T03:50:07;13.47;;;9.20;;
2992;SDS011;1506;48.932;9.478;2023-04-07T03:52:44;14.63;;;10.90;;
2992;SDS011;1506;48.932;9.478;2023-04-07T03:55:21;10.43;;;8.50;;
2992;SDS011;1506;48.932;9.478;2023-04-07T03:57:52;13.80;;;9.40;;
2992;SDS011;1506;48.932;9.478;2023-04-07T04:00:19;12.70;;;10.07;;
2992;SDS011;1506;48.932;9.478;2023-04-07T04:03:01;14.90;;;10.27;;
2992;SDS011;1506;48.932;9.478;2023-04-07T04:05:29;13.33;;;9.87;;
2992;SDS011;1506;48.932;9.478;2023-04-07T04:07:56;15.87;;;10.30;;
2992;SDS011;1506;48.932;9.478;2023-04-07T04:10:25;16.63;;;10.57;;
2992;SDS011;1506;48.932;9.478;2023-04-07T04:12:53;17.00;;;11.20;;
2992;SDS011;1506;48.932;9.478;2023-04-07T04:15:20;19.57;;;11.20;;
2992;SDS011;1506;48.932;9.478;2023-04-07T04:17:48;16.63;;;10.57;;
2992;SDS011;1506;48.932;9.478;2023-04-07T04:20:16;13.40;;;8.80;;
2992;SDS011;1506;48.932;9.478;2023-04-07T04:22:48;14.60;;;10.97;;
2992;SDS011;1506;48.932;9.478;2023-04-07T04:25:16;15.80;;;10.03;;
2992;SDS011;1506;48.932;9.478;2023-04-07T04:27:47;19.03;;;11.17;;
2992;SDS011;1506;48.932;9.478;2023-04-07T04:30:18;18.27;;;10.60;;
2992;SDS011;1506;48.932;9.478;2023-04-07T04:32:49;19.50;;;10.97;;
2992;SDS011;1506;48.932;9.478;2023-04-07T04:35:22;16.97;;;12.30;;
2992;SDS011;1506;48.932;9.478;2023-04-07T04:38:02;29.00;;;12.43;;
2992;SDS011;1506;48.932;9.478;2023-04-07T04:40:30;23.37;;;14.27;;
2992;SDS011;1506;48.932;9.478;2023-04-07T04:42:57;21.20;;;12.30;;
2992;SDS011;1506;48.932;9.478;2023-04-07T04:45:25;18.07;;;11.60;;
2992;SDS011;1506;48.932;9.478;2023-04-07T04:47:52;18.30;;;12.23;;
2992;SDS011;1506;48.932;9.478;2023-04-07T04:50:19;21.20;;;13.87;;
2992;SDS011;1506;48.932;9.478;2023-04-07T04:52:47;23.67;;;14.43;;
2992;SDS011;1506;48.932;9.478;2023-04-07T04:55:20;28.53;;;14.40;;
2992;SDS011;1506;48.932;9.478;2023-04-07T04:57:48;24.47;;;13.93;;
2992;SDS011;1506;48.932;9.478;2023-04-07T05:00:22;21.40;;;12.73;;
2992;SDS011;1506;48.932;9.478;2023-04-07T05:02:55;22.00;;;12.33;;
2992;SDS011;1506;48.932;9.478;2023-04-07T05:05:23;22.60;;;14.67;;
2992;SDS011;1506;48.932;9.478;2023-04-07T05:07:51;26.40;;;14.03;;
2992;SDS011;1506;48.932;9.478;2023-04-07T05:10:19;31.63;;;15.23;;
2992;SDS011;1506;48.932;9.478;2023-04-07T05:12:49;24.07;;;14.47;;
2992;SDS011;1506;48.932;9.478;2023-04-07T05:15:16;26.20;;;13.27;;
2992;SDS011;1506;48.932;9.478;2023-04-07T05:17:46;31.30;;;14.50;;
2992;SDS011;1506;48.932;9.478;2023-04-07T05:20:21;25.47;;;14.30;;
2992;SDS011;1506;48.932;9.478;2023-04-07T05:22:48;24.07;;;14.43;;
2992;SDS011;1506;48.932;9.478;2023-04-07T05:25:18;25.87;;;13.70;;
2992;SDS011;1506;48.932;9.478;2023-04-07T05:27:48;25.13;;;13.97;;
2992;SDS011;1506;48.932;9.478;2023-04-07T05:30:16;27.37;;;14.43;;
2992;SDS011;1506;48.932;9.478;2023-04-07T05:32:44;21.33;;;13.07;;
2992;SDS011;1506;48.932;9.478;2023-04-07T05:35:20;29.80;;;14.67;;
2992;SDS011;1506;48.932;9.478;2023-04-07T05:37:52;22.03;;;13.80;;
2992;SDS011;1506;48.932;9.478;2023-04-07T05:40:20;16.30;;;12.17;;
2992;SDS011;1506;48.932;9.478;2023-04-07T05:42:47;25.13;;;12.97;;
2992;SDS011;1506;48.932;9.478;2023-04-07T05:45:14;20.60;;;13.90;;
2992;SDS011;1506;48.932;9.478;2023-04-07T05:47:45;24.40;;;13.00;;
2992;SDS011;1506;48.932;9.478;2023-04-07T05:50:20;17.13;;;12.47;;
2992;SDS011;1506;48.932;9.478;2023-04-07T05:52:48;29.17;;;15.00;;
2992;SDS011;1506;48.932;9.478;2023-04-07T05:55:22;21.23;;;13.57;;
2992;SDS011;1506;48.932;9.478;2023-04-07T05:57:50;25.63;;;13.30;;
2992;SDS011;1506;48.932;9.478;2023-04-07T06:00:20;19.60;;;13.43;;
2992;SDS011;1506;48.932;9.478;2023-04-07T06:02:58;35.37;;;14.53;;
2992;SDS011;1506;48.932;9.478;2023-04-07T06:05:30;26.60;;;14.73;;
2992;SDS011;1506;48.932;9.478;2023-04-07T06:07:58;20.80;;;13.90;;
2992;SDS011;1506;48.932;9.478;2023-04-07T06:10:26;26.07;;;14.70;;
2992;SDS011;1506;48.932;9.478;2023-04-07T06:12:53;22.70;;;12.60;;
2992;SDS011;1506;48.932;9.478;2023-04-07T06:15:21;29.37;;;14.67;;
2992;SDS011;1506;48.932;9.478;2023-04-07T06:17:49;23.33;;;13.73;;
2992;SDS011;1506;48.932;9.478;2023-04-07T06:20:16;26.07;;;14.87;;
2992;SDS011;1506;48.932;9.478;2023-04-07T06:22:45;25.07;;;14.00;;
2992;SDS011;1506;48.932;9.478;2023-04-07T06:25:12;20.10;;;12.37;;
2992;SDS011;1506;48.932;9.478;2023-04-07T06:27:39;22.40;;;15.00;;
2992;SDS011;1506;48.932;9.478;2023-04-07T06:30:06;19.93;;;13.50;;
2992;SDS011;1506;48.932;9.478;2023-04-07T06:32:34;20.13;;;11.93;;
2992;SDS011;1506;48.932;9.478;2023-04-07T06:35:02;20.47;;;12.60;;
2992;SDS011;1506;48.932;9.478;2023-04-07T06:37:29;24.40;;;13.57;;
2992;SDS011;1506;48.932;9.478;2023-04-07T06:39:56;21.27;;;13.87;;
2992;SDS011;1506;48.932;9.478;2023-04-07T06:42:23;32.20;;;15.43;;
2992;SDS011;1506;48.932;9.478;2023-04-07T06:45:03;26.03;;;14.43;;
2992;SDS011;1506;48.932;9.478;2023-04-07T06:47:31;25.77;;;15.00;;
2992;SDS011;1506;48.932;9.478;2023-04-07T06:49:58;19.27;;;13.73;;
2992;SDS011;1506;48.932;9.478;2023-04-07T06:52:25;31.13;;;15.47;;
2992;SDS011;1506;48.932;9.478;2023-04-07T06:54:52;24.47;;;14.83;;
2992;SDS011;1506;48.932;9.478;2023-04-07T06:57:19;26.53;;;14.90;;
2992;SDS011;1506;48.932;9.478;2023-04-07T06:59:46;26.63;;;14.13;;
2992;SDS011;1506;48.932;9.478;2023-04-07T07:02:13;24.07;;;15.07;;
2992;SDS011;1506;48.932;9.478;2023-04-07T07:04:40;26.40;;;14.90;;
2992;SDS011;1506;48.932;9.478;2023-04-07T07:07:07;24.63;;;14.93;;
2992;SDS011;1506;48.932;9.478;2023-04-07T07:09:34;22.43;;;14.40;;
2992;SDS011;1506;48.932;9.478;2023-04-07T07:12:01;26.87;;;14.27;;
2992;SDS011;1506;48.932;9.478;2023-04-07T07:14:29;28.40;;;16.50;;
2992;SDS011;1506;48.932;9.478;2023-04-07T07:16:56;36.10;;;16.37;;
2992;SDS011;1506;48.932;9.478;2023-04-07T07:19:23;30.73;;;16.90;;
2992;SDS011;1506;48.932;9.478;2023-04-07T07:21:50;39.23;;;15.00;;
2992;SDS011;1506;48.932;9.478;2023-04-07T07:24:17;33.93;;;15.23;;
2992;SDS011;1506;48.932;9.478;2023-04-07T07:26:44;34.63;;;17.90;;
2992;SDS011;1506;48.932;9.478;2023-04-07T07:29:11;24.43;;;13.60;;
2992;SDS011;1506;48.932;9.478;2023-04-07T07:31:38;17.10;;;12.77;;
2992;SDS011;1506;48.932;9.478;2023-04-07T07:34:05;21.33;;;12.40;;
2992;SDS011;1506;48.932;9.478;2023-04-07T07:36:32;19.47;;;12.07;;
2992;SDS011;1506;48.932;9.478;2023-04-07T07:38:59;22.77;;;14.40;;
2992;SDS011;1506;48.932;9.478;2023-04-07T07:41:26;18.83;;;12.43;;
2992;SDS011;1506;48.932;9.478;2023-04-07T07:43:53;18.60;;;12.00;;
2992;SDS011;1506;48.932;9.478;2023-04-07T07:46:21;17.83;;;10.60;;
2992;SDS011;1506;48.932;9.478;2023-04-07T07:48:51;27.97;;;12.43;;
2992;SDS011;1506;48.932;9.478;2023-04-07T07:51:18;22.20;;;11.13;;
2992;SDS011;1506;48.932;9.478;2023-04-07T07:53:46;23.00;;;12.50;;
2992;SDS011;1506;48.932;9.478;2023-04-07T07:56:13;16.70;;;10.70;;
2992;SDS011;1506;48.932;9.478;2023-04-07T07:58:40;15.50;;;11.00;;
2992;SDS011;1506;48.932;9.478;2023-04-07T08:01:07;11.20;;;9.33;;
2992;SDS011;1506;48.932;9.478;2023-04-07T08:03:34;11.70;;;9.90;;
2992;SDS011;1506;48.932;9.478;2023-04-07T08:06:03;12.00;;;8.63;;
2992;SDS011;1506;48.932;9.478;2023-04-07T08:08:31;11.40;;;9.83;;
2992;SDS011;1506;48.932;9.478;2023-04-07T08:10:59;11.77;;;8.60;;
2992;SDS011;1506;48.932;9.478;2023-04-07T08:13:26;13.30;;;8.10;;
2992;SDS011;1506;48.932;9.478;2023-04-07T08:15:53;11.27;;;9.17;;
2992;SDS011;1506;48.932;9.478;2023-04-07T08:18:20;13.60;;;10.07;;
2992;SDS011;1506;48.932;9.478;2023-04-07T08:20:47;9.60;;;8.30;;
2992;SDS011;1506;48.932;9.478;2023-04-07T08:23:14;8.57;;;7.80;;
2992;SDS011;1506;48.932;9.478;2023-04-07T08:25:41;8.13;;;7.33;;
2992;SDS011;1506;48.932;9.478;2023-04-07T08:28:08;11.53;;;7.23;;
2992;SDS011;1506;48.932;9.478;2023-04-07T08:30:35;8.77;;;7.90;;
2992;SDS011;1506;48.932;9.478;2023-04-07T08:33:04;8.03;;;7.23;;
2992;SDS011;1506;48.932;9.478;2023-04-07T08:35:31;8.50;;;7.70;;
2992;SDS011;1506;48.932;9.478;2023-04-07T08:37:58;7.33;;;6.83;;
2992;SDS011;1506;48.932;9.478;2023-04-07T08:40:25;6.50;;;6.00;;
2992;SDS011;1506;48.932;9.478;2023-04-07T08:42:52;6.60;;;6.00;;
2992;SDS011;1506;48.932;9.478;2023-04-07T08:45:20;7.23;;;6.53;;
2992;SDS011;1506;48.932;9.478;2023-04-07T08:47:48;7.67;;;7.00;;
2992;SDS011;1506;48.932;9.478;2023-04-07T08:50:22;10.17;;;7.30;;
2992;SDS011;1506;48.932;9.478;2023-04-07T08:52:53;7.17;;;6.57;;
2992;SDS011;1506;48.932;9.478;2023-04-07T08:55:22;6.93;;;6.30;;
2992;SDS011;1506;48.932;9.478;2023-04-07T08:57:51;6.93;;;6.33;;
2992;SDS011;1506;48.932;9.478;2023-04-07T09:00:19;6.97;;;6.50;;
2992;SDS011;1506;48.932;9.478;2023-04-07T09:02:46;6.43;;;5.90;;
2992;SDS011;1506;48.932;9.478;2023-04-07T09:05:14;7.83;;;7.17;;
2992;SDS011;1506;48.932;9.478;2023-04-07T09:07:42;7.93;;;6.40;;
2992;SDS011;1506;48.932;9.478;2023-04-07T09:10:09;7.10;;;6.60;;
2992;SDS011;1506;48.932;9.478;2023-04-07T09:12:37;7.27;;;6.70;;
2992;SDS011;1506;48.932;9.478;2023-04-07T09:15:05;9.57;;;6.83;;
2992;SDS011;1506;48.932;9.478;2023-04-07T09:17:33;6.87;;;6.27;;
2992;SDS011;1506;48.932;9.478;2023-04-07T09:20:00;6.13;;;5.73;;
2992;SDS011;1506;48.932;9.478;2023-04-07T09:22:33;7.20;;;6.70;;
2992;SDS011;1506;48.932;9.478;2023-04-07T09:25:12;6.70;;;5.90;;
2992;SDS011;1506;48.932;9.478;2023-04-07T09:28:02;7.43;;;6.63;;
2992;SDS011;1506;48.932;9.478;2023-04-07T09:30:31;5.60;;;5.23;;
2992;SDS011;1506;48.932;9.478;2023-04-07T09:32:59;6.57;;;6.17;;
2992;SDS011;1506;48.932;9.478;2023-04-07T09:35:27;6.47;;;5.83;;
2992;SDS011;1506;48.932;9.478;2023-04-07T09:40:30;7.17;;;6.60;;
2992;SDS011;1506;48.932;9.478;2023-04-07T09:42:58;8.20;;;7.50;;
2992;SDS011;1506;48.932;9.478;2023-04-07T09:45:25;7.43;;;6.83;;
2992;SDS011;1506;48.932;9.478;2023-04-07T09:48:08;11.37;;;7.60;;
2992;SDS011;1506;48.932;9.478;2023-04-07T09:50:45;6.80;;;6.30;;
2992;SDS011;1506;48.932;9.478;2023-04-07T09:53:17;6.40;;;5.80;;
2992;SDS011;1506;48.932;9.478;2023-04-07T09:55:48;7.10;;;6.50;;
2992;SDS011;1506;48.932;9.478;2023-04-07T09:58:16;7.30;;;6.70;;
2992;SDS011;1506;48.932;9.478;2023-04-07T10:00:43;6.47;;;5.60;;
2992;SDS011;1506;48.932;9.478;2023-04-07T10:03:12;7.90;;;6.03;;
2992;SDS011;1506;48.932;9.478;2023-04-07T10:05:40;6.77;;;6.20;;
2992;SDS011;1506;48.932;9.478;2023-04-07T10:08:09;7.80;;;6.37;;
2992;SDS011;1506;48.932;9.478;2023-04-07T10:10:38;6.00;;;5.60;;
2992;SDS011;1506;48.932;9.478;2023-04-07T10:13:08;6.20;;;5.70;;
2992;SDS011;1506;48.932;9.478;2023-04-07T10:15:35;7.70;;;6.10;;
2992;SDS011;1506;48.932;9.478;2023-04-07T10:18:03;8.07;;;6.50;;
2992;SDS011;1506;48.932;9.478;2023-04-07T10:20:32;6.23;;;5.63;;
2992;SDS011;1506;48.932;9.478;2023-04-07T10:23:01;11.37;;;6.30;;
2992;SDS011;1506;48.932;9.478;2023-04-07T10:25:41;6.77;;;6.00;;
2992;SDS011;1506;48.932;9.478;2023-04-07T10:28:11;4.40;;;4.10;;
2992;SDS011;1506;48.932;9.478;2023-04-07T10:30:39;5.50;;;5.00;;
2992;SDS011;1506;48.932;9.478;2023-04-07T10:33:07;6.20;;;5.40;;
2992;SDS011;1506;48.932;9.478;2023-04-07T10:38:31;6.00;;;5.03;;
2992;SDS011;1506;48.932;9.478;2023-04-07T10:40:59;5.13;;;4.70;;
2992;SDS011;1506;48.932;9.478;2023-04-07T10:43:36;5.40;;;5.00;;
2992;SDS011;1506;48.932;9.478;2023-04-07T10:46:06;7.23;;;4.90;;
2992;SDS011;1506;48.932;9.478;2023-04-07T10:48:33;5.83;;;5.40;;
2992;SDS011;1506;48.932;9.478;2023-04-07T10:53:30;4.80;;;4.40;;
2992;SDS011;1506;48.932;9.478;2023-04-07T10:55:57;4.67;;;4.27;;
2992;SDS011;1506;48.932;9.478;2023-04-07T10:58:25;7.93;;;5.17;;
2992;SDS011;1506;48.932;9.478;2023-04-07T11:03:32;7.10;;;5.73;;
2992;SDS011;1506;48.932;9.478;2023-04-07T11:06:03;6.80;;;5.50;;
2992;SDS011;1506;48.932;9.478;2023-04-07T11:11:06;9.23;;;5.80;;
2992;SDS011;1506;48.932;9.478;2023-04-07T11:13:41;6.30;;;5.70;;
2992;SDS011;1506;48.932;9.478;2023-04-07T11:16:14;5.70;;;5.23;;
2992;SDS011;1506;48.932;9.478;2023-04-07T11:18:44;4.73;;;4.37;;
2992;SDS011;1506;48.932;9.478;2023-04-07T11:21:16;5.57;;;5.13;;
2992;SDS011;1506;48.932;9.478;2023-04-07T11:23:45;4.90;;;4.50;;
2992;SDS011;1506;48.932;9.478;2023-04-07T11:26:14;8.20;;;3.93;;
2992;SDS011;1506;48.932;9.478;2023-04-07T11:28:45;6.10;;;4.00;;
2992;SDS011;1506;48.932;9.478;2023-04-07T11:31:22;8.37;;;4.00;;
2992;SDS011;1506;48.932;9.478;2023-04-07T11:33:51;13.93;;;4.50;;
2992;SDS011;1506;48.932;9.478;2023-04-07T11:39:25;5.17;;;4.70;;
2992;SDS011;1506;48.932;9.478;2023-04-07T11:42:00;8.57;;;4.83;;
2992;SDS011;1506;48.932;9.478;2023-04-07T11:44:27;4.83;;;4.20;;
2992;SDS011;1506;48.932;9.478;2023-04-07T11:46:55;5.07;;;4.67;;
2992;SDS011;1506;48.932;9.478;2023-04-07T11:49:29;6.47;;;4.10;;
2992;SDS011;1506;48.932;9.478;2023-04-07T11:54:41;3.50;;;3.30;;
2992;SDS011;1506;48.932;9.478;2023-04-07T11:57:12;4.40;;;4.00;;
2992;SDS011;1506;48.932;9.478;2023-04-07T11:59:40;5.53;;;4.00;;
2992;SDS011;1506;48.932;9.478;2023-04-07T12:02:07;3.87;;;3.67;;
2992;SDS011;1506;48.932;9.478;2023-04-07T12:04:35;4.30;;;4.07;;
2992;SDS011;1506;48.932;9.478;2023-04-07T12:07:09;8.80;;;3.77;;
2992;SDS011;1506;48.932;9.478;2023-04-07T12:09:37;3.20;;;2.90;;
2992;SDS011;1506;48.932;9.478;2023-04-07T12:12:04;4.13;;;3.93;;
2992;SDS011;1506;48.932;9.478;2023-04-07T12:14:33;3.60;;;3.30;;
2992;SDS011;1506;48.932;9.478;2023-04-07T12:17:01;3.43;;;3.20;;
2992;SDS011;1506;48.932;9.478;2023-04-07T12:19:30;8.37;;;4.07;;
2992;SDS011;1506;48.932;9.478;2023-04-07T12:22:02;3.73;;;3.50;;
2992;SDS011;1506;48.932;9.478;2023-04-07T12:24:29;5.50;;;3.03;;
2992;SDS011;1506;48.932;9.478;2023-04-07T12:26:57;3.27;;;3.00;;
2992;SDS011;1506;48.932;9.478;2023-04-07T12:29:25;3.00;;;2.90;;
2992;SDS011;1506;48.932;9.478;2023-04-07T12:31:52;3.53;;;3.20;;
2992;SDS011;1506;48.932;9.478;2023-04-07T12:34:19;8.87;;;5.47;;
2992;SDS011;1506;48.932;9.478;2023-04-07T12:36:47;3.67;;;3.40;;
2992;SDS011;1506;48.932;9.478;2023-04-07T12:39:14;4.73;;;3.40;;
2992;SDS011;1506;48.932;9.478;2023-04-07T12:41:41;3.73;;;3.53;;
2992;SDS011;1506;48.932;9.478;2023-04-07T12:44:11;3.77;;;3.00;;
2992;SDS011;1506;48.932;9.478;2023-04-07T12:46:38;2.53;;;2.20;;
2992;SDS011;1506;48.932;9.478;2023-04-07T12:49:05;8.60;;;3.43;;
2992;SDS011;1506;48.932;9.478;2023-04-07T12:51:32;5.00;;;3.20;;
2992;SDS011;1506;48.932;9.478;2023-04-07T12:53:59;4.23;;;2.63;;
2992;SDS011;1506;48.932;9.478;2023-04-07T12:56:27;3.90;;;2.50;;
2992;SDS011;1506;48.932;9.478;2023-04-07T12:58:54;2.60;;;2.50;;
2992;SDS011;1506;48.932;9.478;2023-04-07T13:01:21;8.50;;;2.90;;
2992;SDS011;1506;48.932;9.478;2023-04-07T13:03:48;5.13;;;3.03;;
2992;SDS011;1506;48.932;9.478;2023-04-07T13:06:17;5.67;;;3.13;;
2992;SDS011;1506;48.932;9.478;2023-04-07T13:08:44;2.90;;;2.63;;
2992;SDS011;1506;48.932;9.478;2023-04-07T13:11:11;10.90;;;3.30;;
2992;SDS011;1506;48.932;9.478;2023-04-07T13:13:38;6.50;;;3.30;;
2992;SDS011;1506;48.932;9.478;2023-04-07T13:16:05;4.23;;;3.53;;
2992;SDS011;1506;48.932;9.478;2023-04-07T13:18:33;5.37;;;2.80;;
2992;SDS011;1506;48.932;9.478;2023-04-07T13:21:00;6.30;;;3.33;;
2992;SDS011;1506;48.932;9.478;2023-04-07T13:23:47;3.30;;;2.87;;
2992;SDS011;1506;48.932;9.478;2023-04-07T13:26:16;5.03;;;4.00;;
2992;SDS011;1506;48.932;9.478;2023-04-07T13:28:44;3.47;;;3.27;;
2992;SDS011;1506;48.932;9.478;2023-04-07T13:31:11;3.63;;;3.30;;
2992;SDS011;1506;48.932;9.478;2023-04-07T13:33:41;5.60;;;5.10;;
2992;SDS011;1506;48.932;9.478;2023-04-07T13:36:08;8.70;;;3.87;;
2992;SDS011;1506;48.932;9.478;2023-04-07T13:38:36;7.13;;;3.00;;
2992;SDS011;1506;48.932;9.478;2023-04-07T13:41:03;5.73;;;2.70;;
2992;SDS011;1506;48.932;9.478;2023-04-07T13:43:30;7.23;;;4.33;;
2992;SDS011;1506;48.932;9.478;2023-04-07T13:45:57;4.80;;;2.80;;
2992;SDS011;1506;48.932;9.478;2023-04-07T13:48:24;7.83;;;3.03;;
2992;SDS011;1506;48.932;9.478;2023-04-07T13:50:51;3.90;;;3.60;;
2992;SDS011;1506;48.932;9.478;2023-04-07T13:53:18;3.83;;;3.20;;
2992;SDS011;1506;48.932;9.478;2023-04-07T13:55:45;4.73;;;3.10;;
2992;SDS011;1506;48.932;9.478;2023-04-07T13:58:12;4.53;;;3.13;;
2992;SDS011;1506;48.932;9.478;2023-04-07T14:00:39;5.27;;;2.60;;
2992;SDS011;1506;48.932;9.478;2023-04-07T14:03:06;2.30;;;2.20;;
2992;SDS011;1506;48.932;9.478;2023-04-07T14:05:34;11.63;;;2.93;;
2992;SDS011;1506;48.932;9.478;2023-04-07T14:08:01;6.23;;;3.10;;
2992;SDS011;1506;48.932;9.478;2023-04-07T14:10:28;3.80;;;3.60;;
2992;SDS011;1506;48.932;9.478;2023-04-07T14:12:55;7.33;;;4.23;;
2992;SDS011;1506;48.932;9.478;2023-04-07T14:15:22;11.03;;;3.60;;
2992;SDS011;1506;48.932;9.478;2023-04-07T14:17:50;2.93;;;2.73;;
2992;SDS011;1506;48.932;9.478;2023-04-07T14:20:17;5.27;;;3.00;;
2992;SDS011;1506;48.932;9.478;2023-04-07T14:22:44;4.93;;;3.27;;
2992;SDS011;1506;48.932;9.478;2023-04-07T14:25:11;3.93;;;3.03;;
2992;SDS011;1506;48.932;9.478;2023-04-07T14:27:38;8.37;;;3.20;;
2992;SDS011;1506;48.932;9.478;2023-04-07T14:30:05;4.13;;;2.93;;
2992;SDS011;1506;48.932;9.478;2023-04-07T14:32:33;3.33;;;3.13;;
2992;SDS011;1506;48.932;9.478;2023-04-07T14:35:00;3.57;;;3.20;;
2992;SDS011;1506;48.932;9.478;2023-04-07T14:37:27;2.50;;;2.40;;
2992;SDS011;1506;48.932;9.478;2023-04-07T14:39:54;3.63;;;3.43;;
2992;SDS011;1506;48.932;9.478;2023-04-07T14:42:26;4.00;;;3.60;;
2992;SDS011;1506;48.932;9.478;2023-04-07T14:44:54;4.40;;;3.67;;
2992;SDS011;1506;48.932;9.478;2023-04-07T14:47:22;3.83;;;3.53;;
2992;SDS011;1506;48.932;9.478;2023-04-07T14:49:49;2.93;;;2.73;;
2992;SDS011;1506;48.932;9.478;2023-04-07T14:52:19;3.63;;;2.93;;
2992;SDS011;1506;48.932;9.478;2023-04-07T14:54:47;6.50;;;3.73;;
2992;SDS011;1506;48.932;9.478;2023-04-07T14:57:14;7.17;;;3.20;;
2992;SDS011;1506;48.932;9.478;2023-04-07T14:59:42;11.23;;;3.50;;
2992;SDS011;1506;48.932;9.478;2023-04-07T15:02:09;3.53;;;3.20;;
2992;SDS011;1506;48.932;9.478;2023-04-07T15:04:37;4.57;;;3.40;;
2992;SDS011;1506;48.932;9.478;2023-04-07T15:07:04;5.97;;;3.13;;
2992;SDS011;1506;48.932;9.478;2023-04-07T15:09:31;8.53;;;3.37;;
2992;SDS011;1506;48.932;9.478;2023-04-07T15:11:58;3.90;;;2.90;;
2992;SDS011;1506;48.932;9.478;2023-04-07T15:14:28;5.30;;;3.70;;
2992;SDS011;1506;48.932;9.478;2023-04-07T15:16:55;3.40;;;3.20;;
2992;SDS011;1506;48.932;9.478;2023-04-07T15:19:22;3.67;;;3.37;;
2992;SDS011;1506;48.932;9.478;2023-04-07T15:21:49;4.03;;;3.30;;
2992;SDS011;1506;48.932;9.478;2023-04-07T15:24:16;4.87;;;4.43;;
2992;SDS011;1506;48.932;9.478;2023-04-07T15:26:44;4.30;;;2.73;;
2992;SDS011;1506;48.932;9.478;2023-04-07T15:29:11;13.07;;;3.53;;
2992;SDS011;1506;48.932;9.478;2023-04-07T15:31:38;3.70;;;3.47;;
2992;SDS011;1506;48.932;9.478;2023-04-07T15:34:05;6.30;;;3.10;;
2992;SDS011;1506;48.932;9.478;2023-04-07T15:36:32;3.23;;;2.90;;
2992;SDS011;1506;48.932;9.478;2023-04-07T15:39:01;8.47;;;3.40;;
2992;SDS011;1506;48.932;9.478;2023-04-07T15:41:30;4.47;;;4.13;;
2992;SDS011;1506;48.932;9.478;2023-04-07T15:43:57;5.00;;;4.60;;